HSOB

El Obeid Airport

Al-Ubayyid, Sudan
METAR HSOB 221400Z 24005KT CAVOK 31/19 Q1010
Observed Flight Rules
Sep-22 @ 14:00 UTC (60 minutes ago) Visual Flight Rules
Wind Visibility Clouds
240° at 5 knots 10,000+ meters
Temperatures Readings
Current 31°C / 88°F
Dewpoint 19°C / 66°F
Humidity 49%
Altimeter 29.82" Hg
Pressure 1010 hPa
Elevation 574
METAR HSOB 221400Z 24005KT CAVOK 31/19 Q1010
Observed Flight Rules
Sep-22 @ 14:00 UTC
(60 minutes ago)
VFR
Wind Visibility
240° at 5 knots 10,000+ meters
Clouds
Temperature Dewpoint
31°C / 88°F 19°C / 66°F
Humidity Altimeter Pressure
49% 29.82" Hg 1010 hPa